sensor_id;sensor_type;location;lat;lon;timestamp;pressure;altitude;pressure_sealevel;temperature;humidity
41898;BME280;27576;53.366;-1.498;2022-08-19T00:02:05;99639.53;;;17.82;100.00
41898;BME280;27576;53.366;-1.498;2022-08-19T00:04:34;99661.81;;;17.97;100.00
41898;BME280;27576;53.366;-1.498;2022-08-19T00:07:04;99661.13;;;17.90;100.00
41898;BME280;27576;53.366;-1.498;2022-08-19T00:09:30;99656.75;;;17.91;100.00
41898;BME280;27576;53.366;-1.498;2022-08-19T00:11:56;99667.16;;;17.94;100.00
41898;BME280;27576;53.366;-1.498;2022-08-19T00:14:24;99653.25;;;17.92;100.00
41898;BME280;27576;53.366;-1.498;2022-08-19T00:16:50;99661.09;;;17.92;100.00
41898;BME280;27576;53.366;-1.498;2022-08-19T00:19:20;99660.28;;;17.90;100.00
41898;BME280;27576;53.366;-1.498;2022-08-19T00:21:46;99668.19;;;17.88;100.00
41898;BME280;27576;53.366;-1.498;2022-08-19T00:24:14;99669.91;;;17.89;100.00
41898;BME280;27576;53.366;-1.498;2022-08-19T00:26:41;99674.28;;;17.89;100.00
41898;BME280;27576;53.366;-1.498;2022-08-19T00:29:08;99691.81;;;17.87;100.00
41898;BME280;27576;53.366;-1.498;2022-08-19T00:31:34;99679.16;;;17.70;100.00
41898;BME280;27576;53.366;-1.498;2022-08-19T00:34:01;99698.25;;;17.75;100.00
41898;BME280;27576;53.366;-1.498;2022-08-19T00:36:26;99695.81;;;17.67;100.00
41898;BME280;27576;53.366;-1.498;2022-08-19T00:38:53;99700.34;;;17.62;100.00
41898;BME280;27576;53.366;-1.498;2022-08-19T00:41:21;99714.38;;;17.60;100.00
41898;BME280;27576;53.366;-1.498;2022-08-19T00:44:04;99718.94;;;17.53;98.76
41898;BME280;27576;53.366;-1.498;2022-08-19T00:46:30;99710.31;;;17.48;98.98
41898;BME280;27576;53.366;-1.498;2022-08-19T00:48:58;99710.50;;;17.42;97.75
41898;BME280;27576;53.366;-1.498;2022-08-19T00:51:26;99712.41;;;17.35;97.04
41898;BME280;27576;53.366;-1.498;2022-08-19T00:53:55;99708.16;;;17.31;98.25
41898;BME280;27576;53.366;-1.498;2022-08-19T00:56:22;99696.28;;;17.18;95.81
41898;BME280;27576;53.366;-1.498;2022-08-19T00:58:48;99695.56;;;17.11;96.18
41898;BME280;27576;53.366;-1.498;2022-08-19T01:01:15;99696.47;;;17.10;96.07
41898;BME280;27576;53.366;-1.498;2022-08-19T01:03:41;99698.31;;;17.07;95.02
41898;BME280;27576;53.366;-1.498;2022-08-19T01:06:06;99692.41;;;16.97;96.03
41898;BME280;27576;53.366;-1.498;2022-08-19T01:08:32;99695.88;;;16.99;96.33
41898;BME280;27576;53.366;-1.498;2022-08-19T01:10:59;99710.59;;;17.03;96.17
41898;BME280;27576;53.366;-1.498;2022-08-19T01:13:29;99718.38;;;17.06;95.69
41898;BME280;27576;53.366;-1.498;2022-08-19T01:15:59;99717.56;;;17.04;95.08
41898;BME280;27576;53.366;-1.498;2022-08-19T01:18:26;99721.16;;;17.00;92.99
41898;BME280;27576;53.366;-1.498;2022-08-19T01:20:54;99716.94;;;16.93;89.28
41898;BME280;27576;53.366;-1.498;2022-08-19T01:23:21;99707.44;;;16.90;90.76
41898;BME280;27576;53.366;-1.498;2022-08-19T01:25:52;99711.94;;;16.84;90.02
41898;BME280;27576;53.366;-1.498;2022-08-19T01:28:25;99720.59;;;16.87;90.16
41898;BME280;27576;53.366;-1.498;2022-08-19T01:30:51;99731.16;;;16.83;89.00
41898;BME280;27576;53.366;-1.498;2022-08-19T01:33:17;99732.16;;;16.77;89.30
41898;BME280;27576;53.366;-1.498;2022-08-19T01:35:44;99668.50;;;16.39;89.25
41898;BME280;27576;53.366;-1.498;2022-08-19T01:38:21;99708.88;;;16.65;88.95
41898;BME280;27576;53.366;-1.498;2022-08-19T01:40:46;99709.03;;;16.59;90.39
41898;BME280;27576;53.366;-1.498;2022-08-19T01:43:12;99745.28;;;16.76;89.65
41898;BME280;27576;53.366;-1.498;2022-08-19T01:45:37;99739.50;;;16.60;89.31
41898;BME280;27576;53.366;-1.498;2022-08-19T01:48:08;99749.75;;;16.69;89.62
41898;BME280;27576;53.366;-1.498;2022-08-19T01:50:35;99721.38;;;16.52;89.77
41898;BME280;27576;53.366;-1.498;2022-08-19T01:53:02;99707.59;;;16.44;90.20
41898;BME280;27576;53.366;-1.498;2022-08-19T01:55:29;99743.03;;;16.59;90.16
41898;BME280;27576;53.366;-1.498;2022-08-19T01:57:58;99712.94;;;16.39;91.49
41898;BME280;27576;53.366;-1.498;2022-08-19T02:00:28;99726.03;;;16.39;90.88
41898;BME280;27576;53.366;-1.498;2022-08-19T02:02:54;99730.50;;;16.33;89.72
41898;BME280;27576;53.366;-1.498;2022-08-19T02:05:20;99727.25;;;16.23;90.10
41898;BME280;27576;53.366;-1.498;2022-08-19T02:07:48;99741.97;;;16.27;89.68
41898;BME280;27576;53.366;-1.498;2022-08-19T02:10:19;99740.44;;;16.17;89.43
41898;BME280;27576;53.366;-1.498;2022-08-19T02:12:46;99750.72;;;16.25;89.78
41898;BME280;27576;53.366;-1.498;2022-08-19T02:15:11;99763.00;;;16.21;90.44
41898;BME280;27576;53.366;-1.498;2022-08-19T02:17:37;99769.06;;;16.23;91.21
41898;BME280;27576;53.366;-1.498;2022-08-19T02:20:03;99751.78;;;16.16;91.50
41898;BME280;27576;53.366;-1.498;2022-08-19T02:22:29;99740.78;;;16.00;90.66
41898;BME280;27576;53.366;-1.498;2022-08-19T02:24:54;99776.22;;;16.13;90.52
41898;BME280;27576;53.366;-1.498;2022-08-19T02:27:21;99778.78;;;16.16;90.29
41898;BME280;27576;53.366;-1.498;2022-08-19T02:29:48;99774.66;;;16.05;90.20
41898;BME280;27576;53.366;-1.498;2022-08-19T02:32:15;99773.91;;;15.98;90.42
41898;BME280;27576;53.366;-1.498;2022-08-19T02:34:41;99793.84;;;16.04;90.32
41898;BME280;27576;53.366;-1.498;2022-08-19T02:37:06;99780.06;;;15.95;90.25
41898;BME280;27576;53.366;-1.498;2022-08-19T02:39:52;99762.88;;;15.84;89.92
41898;BME280;27576;53.366;-1.498;2022-08-19T02:42:17;99764.59;;;15.83;89.29
41898;BME280;27576;53.366;-1.498;2022-08-19T02:44:43;99776.72;;;15.89;89.36
41898;BME280;27576;53.366;-1.498;2022-08-19T02:47:09;99768.16;;;15.81;89.65
41898;BME280;27576;53.366;-1.498;2022-08-19T02:49:35;99762.19;;;15.74;89.44
41898;BME280;27576;53.366;-1.498;2022-08-19T02:52:00;99751.03;;;15.64;88.88
41898;BME280;27576;53.366;-1.498;2022-08-19T02:54:26;99775.19;;;15.76;88.50
41898;BME280;27576;53.366;-1.498;2022-08-19T02:56:52;99770.16;;;15.66;88.25
41898;BME280;27576;53.366;-1.498;2022-08-19T02:59:17;99771.91;;;15.64;87.80
41898;BME280;27576;53.366;-1.498;2022-08-19T03:01:43;99790.94;;;15.73;88.01
41898;BME280;27576;53.366;-1.498;2022-08-19T03:04:10;99785.72;;;15.71;88.95
41898;BME280;27576;53.366;-1.498;2022-08-19T03:06:37;99788.44;;;15.68;87.80
41898;BME280;27576;53.366;-1.498;2022-08-19T03:09:03;99786.63;;;15.70;87.71
41898;BME280;27576;53.366;-1.498;2022-08-19T03:11:30;99790.09;;;15.72;87.37
41898;BME280;27576;53.366;-1.498;2022-08-19T03:13:57;99770.28;;;15.57;87.24
41898;BME280;27576;53.366;-1.498;2022-08-19T03:16:25;99783.22;;;15.63;86.58
41898;BME280;27576;53.366;-1.498;2022-08-19T03:18:51;99802.22;;;15.75;86.76
41898;BME280;27576;53.366;-1.498;2022-08-19T03:21:22;99801.31;;;15.76;87.09
41898;BME280;27576;53.366;-1.498;2022-08-19T03:23:49;99787.59;;;15.64;86.85
41898;BME280;27576;53.366;-1.498;2022-08-19T03:26:15;99803.03;;;15.78;87.62
41898;BME280;27576;53.366;-1.498;2022-08-19T03:28:43;99788.44;;;15.66;87.50
41898;BME280;27576;53.366;-1.498;2022-08-19T03:31:12;99784.13;;;15.62;86.91
41898;BME280;27576;53.366;-1.498;2022-08-19T03:33:39;99808.34;;;15.74;87.02
41898;BME280;27576;53.366;-1.498;2022-08-19T03:38:37;99809.16;;;15.76;88.68
41898;BME280;27576;53.366;-1.498;2022-08-19T03:41:10;99807.50;;;15.71;88.50
41898;BME280;27576;53.366;-1.498;2022-08-19T03:43:37;99810.25;;;15.62;88.79
41898;BME280;27576;53.366;-1.498;2022-08-19T03:46:09;99813.69;;;15.66;89.40
41898;BME280;27576;53.366;-1.498;2022-08-19T03:48:35;99799.97;;;15.53;89.23
41898;BME280;27576;53.366;-1.498;2022-08-19T03:51:02;99813.88;;;15.54;89.75
41898;BME280;27576;53.366;-1.498;2022-08-19T03:53:29;99829.50;;;15.55;89.83
41898;BME280;27576;53.366;-1.498;2022-08-19T03:55:56;99830.44;;;15.51;90.20
41898;BME280;27576;53.366;-1.498;2022-08-19T03:58:25;99814.94;;;15.40;89.70
41898;BME280;27576;53.366;-1.498;2022-08-19T04:00:51;99790.91;;;15.21;88.92
41898;BME280;27576;53.366;-1.498;2022-08-19T04:03:16;99813.41;;;15.29;88.88
41898;BME280;27576;53.366;-1.498;2022-08-19T04:05:44;99818.66;;;15.27;89.67
41898;BME280;27576;53.366;-1.498;2022-08-19T04:08:10;99826.53;;;15.26;89.79
41898;BME280;27576;53.366;-1.498;2022-08-19T04:10:36;99809.22;;;15.18;89.99
41898;BME280;27576;53.366;-1.498;2022-08-19T04:13:03;99807.59;;;15.11;90.22
41898;BME280;27576;53.366;-1.498;2022-08-19T04:15:31;99813.72;;;15.09;90.34
41898;BME280;27576;53.366;-1.498;2022-08-19T04:18:00;99799.06;;;15.00;89.89
41898;BME280;27576;53.366;-1.498;2022-08-19T04:20:26;99837.97;;;15.15;90.58
41898;BME280;27576;53.366;-1.498;2022-08-19T04:22:51;99826.81;;;15.04;89.92
41898;BME280;27576;53.366;-1.498;2022-08-19T04:25:16;99852.00;;;15.08;91.17
41898;BME280;27576;53.366;-1.498;2022-08-19T04:27:42;99814.91;;;14.88;89.93
41898;BME280;27576;53.366;-1.498;2022-08-19T04:30:12;99833.09;;;14.92;90.49
41898;BME280;27576;53.366;-1.498;2022-08-19T04:32:38;99859.94;;;15.02;90.35
41898;BME280;27576;53.366;-1.498;2022-08-19T04:35:08;99844.31;;;14.99;90.68
41898;BME280;27576;53.366;-1.498;2022-08-19T04:37:34;99843.44;;;14.97;90.59
41898;BME280;27576;53.366;-1.498;2022-08-19T04:39:59;99829.75;;;14.83;91.23
41898;BME280;27576;53.366;-1.498;2022-08-19T04:42:43;99857.50;;;14.90;91.02
41898;BME280;27576;53.366;-1.498;2022-08-19T04:45:13;99863.56;;;14.89;91.20
41898;BME280;27576;53.366;-1.498;2022-08-19T04:47:41;99863.66;;;14.83;91.34
41898;BME280;27576;53.366;-1.498;2022-08-19T04:50:08;99863.63;;;14.86;91.15
41898;BME280;27576;53.366;-1.498;2022-08-19T04:52:37;99876.69;;;14.84;91.43
41898;BME280;27576;53.366;-1.498;2022-08-19T04:55:03;99860.28;;;14.75;91.18
41898;BME280;27576;53.366;-1.498;2022-08-19T04:57:32;99848.25;;;14.64;91.06
41898;BME280;27576;53.366;-1.498;2022-08-19T04:59:58;99875.13;;;14.71;91.38
41898;BME280;27576;53.366;-1.498;2022-08-19T05:02:23;99854.34;;;14.62;91.89
41898;BME280;27576;53.366;-1.498;2022-08-19T05:04:59;99876.88;;;14.69;91.89
41898;BME280;27576;53.366;-1.498;2022-08-19T05:07:25;99857.03;;;14.57;92.34
41898;BME280;27576;53.366;-1.498;2022-08-19T05:09:51;99894.16;;;14.76;93.06
41898;BME280;27576;53.366;-1.498;2022-08-19T05:12:16;99883.75;;;14.76;92.16
41898;BME280;27576;53.366;-1.498;2022-08-19T05:14:42;99864.88;;;14.56;91.60
41898;BME280;27576;53.366;-1.498;2022-08-19T05:17:09;99867.41;;;14.60;92.33
41898;BME280;27576;53.366;-1.498;2022-08-19T05:19:34;99867.50;;;14.53;91.94
41898;BME280;27576;53.366;-1.498;2022-08-19T05:22:18;99858.00;;;14.45;92.17
41898;BME280;27576;53.366;-1.498;2022-08-19T05:25:06;99900.38;;;14.67;92.53
41898;BME280;27576;53.366;-1.498;2022-08-19T05:27:32;99901.28;;;14.62;92.89
41898;BME280;27576;53.366;-1.498;2022-08-19T05:29:58;99870.22;;;14.40;92.31
41898;BME280;27576;53.366;-1.498;2022-08-19T05:32:24;99870.25;;;14.37;91.64
41898;BME280;27576;53.366;-1.498;2022-08-19T05:34:50;99892.78;;;14.44;90.81
41898;BME280;27576;53.366;-1.498;2022-08-19T05:37:15;99918.75;;;14.57;91.24
41898;BME280;27576;53.366;-1.498;2022-08-19T05:39:42;99911.00;;;14.49;92.09
41898;BME280;27576;53.366;-1.498;2022-08-19T05:42:09;99917.06;;;14.54;93.18
41898;BME280;27576;53.366;-1.498;2022-08-19T05:44:41;99924.88;;;14.54;92.97
41898;BME280;27576;53.366;-1.498;2022-08-19T05:47:11;99931.78;;;14.58;92.99
41898;BME280;27576;53.366;-1.498;2022-08-19T05:49:41;99928.34;;;14.55;92.80
41898;BME280;27576;53.366;-1.498;2022-08-19T05:52:10;99927.47;;;14.54;93.56
41898;BME280;27576;53.366;-1.498;2022-08-19T05:54:40;99940.41;;;14.62;93.70
41898;BME280;27576;53.366;-1.498;2022-08-19T05:57:07;99934.31;;;14.61;94.18
41898;BME280;27576;53.366;-1.498;2022-08-19T05:59:33;99911.00;;;14.49;93.41
41898;BME280;27576;53.366;-1.498;2022-08-19T06:02:01;99923.06;;;14.59;93.09
41898;BME280;27576;53.366;-1.498;2022-08-19T06:04:27;99911.88;;;14.51;93.80
41898;BME280;27576;53.366;-1.498;2022-08-19T06:06:53;99926.53;;;14.60;93.47
41898;BME280;27576;53.366;-1.498;2022-08-19T06:09:20;99922.22;;;14.57;93.42
41898;BME280;27576;53.366;-1.498;2022-08-19T06:11:54;99930.84;;;14.64;93.85
41898;BME280;27576;53.366;-1.498;2022-08-19T06:14:23;99931.66;;;14.67;93.91
41898;BME280;27576;53.366;-1.498;2022-08-19T06:16:49;99916.03;;;14.64;94.17
41898;BME280;27576;53.366;-1.498;2022-08-19T06:19:19;99925.53;;;14.71;93.46
41898;BME280;27576;53.366;-1.498;2022-08-19T06:21:46;99936.69;;;14.83;93.46
41898;BME280;27576;53.366;-1.498;2022-08-19T06:24:15;99939.97;;;14.98;93.06
41898;BME280;27576;53.366;-1.498;2022-08-19T06:26:44;99913.06;;;14.95;90.66
41898;BME280;27576;53.366;-1.498;2022-08-19T06:29:13;99927.59;;;15.14;90.24
41898;BME280;27576;53.366;-1.498;2022-08-19T06:31:43;99942.22;;;15.26;90.00
41898;BME280;27576;53.366;-1.498;2022-08-19T06:34:09;99936.03;;;15.32;89.67
41898;BME280;27576;53.366;-1.498;2022-08-19T06:36:41;99930.78;;;15.35;88.88
41898;BME280;27576;53.366;-1.498;2022-08-19T06:39:09;99926.44;;;15.37;89.45
41898;BME280;27576;53.366;-1.498;2022-08-19T06:41:37;99921.19;;;15.37;89.21
41898;BME280;27576;53.366;-1.498;2022-08-19T06:44:03;99923.63;;;15.49;88.53
41898;BME280;27576;53.366;-1.498;2022-08-19T06:46:29;99939.03;;;15.67;88.29
41898;BME280;27576;53.366;-1.498;2022-08-19T06:48:56;99929.41;;;15.71;87.07
41898;BME280;27576;53.366;-1.498;2022-08-19T06:51:22;99922.41;;;15.73;85.71
41898;BME280;27576;53.366;-1.498;2022-08-19T06:53:50;99949.13;;;15.92;85.48
41898;BME280;27576;53.366;-1.498;2022-08-19T06:56:26;99944.63;;;16.00;86.07
41898;BME280;27576;53.366;-1.498;2022-08-19T06:58:59;99940.25;;;15.99;85.81
41898;BME280;27576;53.366;-1.498;2022-08-19T07:01:26;99937.50;;;16.08;84.98
41898;BME280;27576;53.366;-1.498;2022-08-19T07:03:52;99957.22;;;16.28;84.04
41898;BME280;27576;53.366;-1.498;2022-08-19T07:06:18;99963.16;;;16.36;83.29
41898;BME280;27576;53.366;-1.498;2022-08-19T07:08:46;99963.09;;;16.40;82.21
41898;BME280;27576;53.366;-1.498;2022-08-19T07:11:14;99961.31;;;16.41;81.80
41898;BME280;27576;53.366;-1.498;2022-08-19T07:13:40;99962.03;;;16.51;83.29
41898;BME280;27576;53.366;-1.498;2022-08-19T07:16:11;99959.00;;;16.72;83.11
41898;BME280;27576;53.366;-1.498;2022-08-19T07:18:36;99926.72;;;16.73;81.53
41898;BME280;27576;53.366;-1.498;2022-08-19T07:21:08;99960.34;;;16.95;78.75
41898;BME280;27576;53.366;-1.498;2022-08-19T07:23:34;99931.13;;;16.69;77.60
41898;BME280;27576;53.366;-1.498;2022-08-19T07:26:11;99961.44;;;16.83;78.03
41898;BME280;27576;53.366;-1.498;2022-08-19T07:28:40;99963.16;;;16.84;78.47
41898;BME280;27576;53.366;-1.498;2022-08-19T07:31:11;99961.38;;;16.86;76.78
41898;BME280;27576;53.366;-1.498;2022-08-19T07:33:38;99958.03;;;16.78;77.35
41898;BME280;27576;53.366;-1.498;2022-08-19T07:36:08;99968.19;;;16.93;76.91
41898;BME280;27576;53.366;-1.498;2022-08-19T07:38:37;99957.81;;;16.90;76.94
41898;BME280;27576;53.366;-1.498;2022-08-19T07:41:04;99953.53;;;16.86;76.38
41898;BME280;27576;53.366;-1.498;2022-08-19T07:43:29;99968.91;;;17.01;76.05
41898;BME280;27576;53.366;-1.498;2022-08-19T07:45:55;99975.72;;;17.10;76.55
41898;BME280;27576;53.366;-1.498;2022-08-19T07:48:24;99977.19;;;17.23;76.79
41898;BME280;27576;53.366;-1.498;2022-08-19T07:50:55;99964.94;;;17.25;75.86
41898;BME280;27576;53.366;-1.498;2022-08-19T07:53:22;99977.75;;;17.37;74.80
41898;BME280;27576;53.366;-1.498;2022-08-19T07:55:48;99964.84;;;17.30;73.43
41898;BME280;27576;53.366;-1.498;2022-08-19T07:58:17;99977.25;;;17.20;72.41
41898;BME280;27576;53.366;-1.498;2022-08-19T08:00:43;99990.47;;;17.14;73.76
41898;BME280;27576;53.366;-1.498;2022-08-19T08:03:10;99988.13;;;17.02;73.79
41898;BME280;27576;53.366;-1.498;2022-08-19T08:05:35;99931.09;;;16.74;72.97
41898;BME280;27576;53.366;-1.498;2022-08-19T08:08:19;99995.03;;;17.04;73.58
41898;BME280;27576;53.366;-1.498;2022-08-19T08:11:05;100005.41;;;17.09;72.52
41898;BME280;27576;53.366;-1.498;2022-08-19T08:13:31;100004.47;;;17.11;72.30
41898;BME280;27576;53.366;-1.498;2022-08-19T08:15:57;99986.50;;;16.95;71.48
41898;BME280;27576;53.366;-1.498;2022-08-19T08:18:24;100001.28;;;16.97;72.16
41898;BME280;27576;53.366;-1.498;2022-08-19T08:20:50;99969.44;;;16.75;71.54
41898;BME280;27576;53.366;-1.498;2022-08-19T08:23:15;100017.13;;;16.91;71.50
41898;BME280;27576;53.366;-1.498;2022-08-19T08:25:51;99998.88;;;16.86;72.29
41898;BME280;27576;53.366;-1.498;2022-08-19T08:28:18;99971.91;;;16.83;72.64
41898;BME280;27576;53.366;-1.498;2022-08-19T08:30:45;99999.13;;;17.17;72.80
41898;BME280;27576;53.366;-1.498;2022-08-19T08:33:13;100008.28;;;17.38;71.25
41898;BME280;27576;53.366;-1.498;2022-08-19T08:35:39;100001.75;;;17.56;70.98
41898;BME280;27576;53.366;-1.498;2022-08-19T08:38:07;100005.09;;;17.64;69.54
41898;BME280;27576;53.366;-1.498;2022-08-19T08:40:45;100016.75;;;17.90;67.81
41898;BME280;27576;53.366;-1.498;2022-08-19T08:43:44;100010.47;;;17.97;64.89
41898;BME280;27576;53.366;-1.498;2022-08-19T08:46:18;100003.78;;;17.84;66.71
41898;BME280;27576;53.366;-1.498;2022-08-19T08:49:09;100010.56;;;17.94;64.91
41898;BME280;27576;53.366;-1.498;2022-08-19T08:51:42;99999.94;;;17.99;66.06
41898;BME280;27576;53.366;-1.498;2022-08-19T08:54:11;100010.06;;;18.14;65.00
41898;BME280;27576;53.366;-1.498;2022-08-19T08:56:40;100012.38;;;18.28;66.04
41898;BME280;27576;53.366;-1.498;2022-08-19T08:59:31;99999.00;;;18.37;62.34
41898;BME280;27576;53.366;-1.498;2022-08-19T09:02:00;99999.59;;;18.48;64.57
41898;BME280;27576;53.366;-1.498;2022-08-19T09:04:25;100011.28;;;18.69;63.79
41898;BME280;27576;53.366;-1.498;2022-08-19T09:07:31;100007.47;;;18.82;59.70
41898;BME280;27576;53.366;-1.498;2022-08-19T09:16:17;100013.03;;;19.03;58.69
41898;BME280;27576;53.366;-1.498;2022-08-19T09:18:50;100017.41;;;19.02;58.63
41898;BME280;27576;53.366;-1.498;2022-08-19T09:21:19;100015.03;;;18.93;58.30
41898;BME280;27576;53.366;-1.498;2022-08-19T09:23:46;100022.38;;;18.80;58.23
41898;BME280;27576;53.366;-1.498;2022-08-19T09:26:14;100021.69;;;18.74;59.60
41898;BME280;27576;53.366;-1.498;2022-08-19T09:28:42;100005.56;;;18.87;58.46
41898;BME280;27576;53.366;-1.498;2022-08-19T09:31:19;100012.53;;;19.20;58.03
41898;BME280;27576;53.366;-1.498;2022-08-19T09:33:46;99998.66;;;19.44;58.11
41898;BME280;27576;53.366;-1.498;2022-08-19T09:36:14;99993.19;;;19.81;57.10
41898;BME280;27576;53.366;-1.498;2022-08-19T09:38:41;100013.97;;;20.16;57.72
41898;BME280;27576;53.366;-1.498;2022-08-19T09:41:12;99997.06;;;19.96;54.19
41898;BME280;27576;53.366;-1.498;2022-08-19T09:43:40;100017.47;;;19.90;55.26
41898;BME280;27576;53.366;-1.498;2022-08-19T09:46:07;100012.81;;;19.70;55.98
41898;BME280;27576;53.366;-1.498;2022-08-19T09:48:38;99992.94;;;19.59;56.17
41898;BME280;27576;53.366;-1.498;2022-08-19T09:51:09;100011.22;;;19.92;56.85
41898;BME280;27576;53.366;-1.498;2022-08-19T09:53:35;99998.19;;;20.16;56.32
41898;BME280;27576;53.366;-1.498;2022-08-19T09:56:05;100013.22;;;20.39;52.95
41898;BME280;27576;53.366;-1.498;2022-08-19T09:58:34;100004.34;;;20.16;54.56
41898;BME280;27576;53.366;-1.498;2022-08-19T10:01:01;100006.38;;;20.06;53.78
41898;BME280;27576;53.366;-1.498;2022-08-19T10:03:28;100031.69;;;20.10;55.09
41898;BME280;27576;53.366;-1.498;2022-08-19T10:05:55;100003.56;;;19.84;54.03
41898;BME280;27576;53.366;-1.498;2022-08-19T10:08:27;100031.31;;;19.95;53.38
41898;BME280;27576;53.366;-1.498;2022-08-19T10:10:54;100022.41;;;19.99;54.14
41898;BME280;27576;53.366;-1.498;2022-08-19T10:13:21;100020.66;;;20.26;55.57
41898;BME280;27576;53.366;-1.498;2022-08-19T10:15:49;100005.69;;;20.54;54.56
41898;BME280;27576;53.366;-1.498;2022-08-19T10:18:19;100020.19;;;20.66;52.51
41898;BME280;27576;53.366;-1.498;2022-08-19T10:20:49;100005.47;;;20.61;50.62
41898;BME280;27576;53.366;-1.498;2022-08-19T10:23:16;100009.97;;;20.82;51.67
41898;BME280;27576;53.366;-1.498;2022-08-19T10:25:42;99991.53;;;20.82;49.99
41898;BME280;27576;53.366;-1.498;2022-08-19T10:28:09;100005.19;;;20.93;48.32
41898;BME280;27576;53.366;-1.498;2022-08-19T10:30:37;100001.50;;;20.99;49.01
41898;BME280;27576;53.366;-1.498;2022-08-19T10:33:03;100002.44;;;20.96;47.65
41898;BME280;27576;53.366;-1.498;2022-08-19T10:35:30;99996.13;;;20.77;48.66
41898;BME280;27576;53.366;-1.498;2022-08-19T10:37:56;99998.38;;;20.63;48.46
41898;BME280;27576;53.366;-1.498;2022-08-19T10:40:27;100018.38;;;20.68;49.53
41898;BME280;27576;53.366;-1.498;2022-08-19T10:42:53;100012.50;;;20.85;49.99
41898;BME280;27576;53.366;-1.498;2022-08-19T10:45:21;100017.69;;;21.12;49.71
41898;BME280;27576;53.366;-1.498;2022-08-19T10:47:54;99998.72;;;21.02;49.19
41898;BME280;27576;53.366;-1.498;2022-08-19T10:50:20;99984.78;;;20.75;49.88
41898;BME280;27576;53.366;-1.498;2022-08-19T10:53:06;99962.75;;;20.77;50.09
41898;BME280;27576;53.366;-1.498;2022-08-19T10:55:34;99998.13;;;21.19;51.03
41898;BME280;27576;53.366;-1.498;2022-08-19T10:58:20;99998.13;;;21.19;49.77
41898;BME280;27576;53.366;-1.498;2022-08-19T11:00:58;100015.75;;;21.17;49.18
41898;BME280;27576;53.366;-1.498;2022-08-19T11:03:24;100004.75;;;21.05;51.52
41898;BME280;27576;53.366;-1.498;2022-08-19T11:06:04;100014.69;;;20.97;48.76
41898;BME280;27576;53.366;-1.498;2022-08-19T11:08:31;100021.72;;;20.73;50.93
41898;BME280;27576;53.366;-1.498;2022-08-19T11:10:59;100015.38;;;20.79;51.65
41898;BME280;27576;53.366;-1.498;2022-08-19T11:13:27;100010.41;;;20.95;50.59
41898;BME280;27576;53.366;-1.498;2022-08-19T11:16:01;100011.88;;;21.02;49.95
41898;BME280;27576;53.366;-1.498;2022-08-19T11:18:28;100004.84;;;21.26;51.14
41898;BME280;27576;53.366;-1.498;2022-08-19T11:20:53;99986.72;;;21.42;48.10
41898;BME280;27576;53.366;-1.498;2022-08-19T11:23:19;100014.78;;;21.88;48.45
41898;BME280;27576;53.366;-1.498;2022-08-19T11:25:45;99996.50;;;21.62;46.57
41898;BME280;27576;53.366;-1.498;2022-08-19T11:28:11;100007.88;;;21.40;46.46
41898;BME280;27576;53.366;-1.498;2022-08-19T11:30:38;100000.59;;;20.98;46.98
41898;BME280;27576;53.366;-1.498;2022-08-19T11:33:04;100011.13;;;20.98;48.43
41898;BME280;27576;53.366;-1.498;2022-08-19T11:35:29;100012.09;;;21.21;47.54
41898;BME280;27576;53.366;-1.498;2022-08-19T11:37:55;99961.72;;;21.05;46.89
41898;BME280;27576;53.366;-1.498;2022-08-19T11:40:23;100001.59;;;21.66;47.34
41898;BME280;27576;53.366;-1.498;2022-08-19T11:42:48;99995.97;;;21.97;46.44
41898;BME280;27576;53.366;-1.498;2022-08-19T11:45:27;99993.41;;;22.38;48.42
41898;BME280;27576;53.366;-1.498;2022-08-19T11:47:54;99984.53;;;22.60;46.09
41898;BME280;27576;53.366;-1.498;2022-08-19T11:50:20;99981.22;;;22.56;45.30
41898;BME280;27576;53.366;-1.498;2022-08-19T11:52:46;99992.47;;;22.60;44.46
41898;BME280;27576;53.366;-1.498;2022-08-19T11:55:13;99998.94;;;22.32;43.35
41898;BME280;27576;53.366;-1.498;2022-08-19T11:57:38;100010.19;;;22.15;45.10
41898;BME280;27576;53.366;-1.498;2022-08-19T12:00:06;99998.44;;;22.00;46.19
41898;BME280;27576;53.366;-1.498;2022-08-19T12:02:33;99978.97;;;21.83;45.55
41898;BME280;27576;53.366;-1.498;2022-08-19T12:04:58;99993.56;;;21.91;44.91
41898;BME280;27576;53.366;-1.498;2022-08-19T12:07:25;100003.69;;;21.80;45.58
41898;BME280;27576;53.366;-1.498;2022-08-19T12:09:50;100003.50;;;21.63;46.42
41898;BME280;27576;53.366;-1.498;2022-08-19T12:12:16;100016.91;;;21.56;47.07
41898;BME280;27576;53.366;-1.498;2022-08-19T12:14:41;100002.22;;;21.49;47.37
41898;BME280;27576;53.366;-1.498;2022-08-19T12:17:06;100007.22;;;21.33;47.50
41898;BME280;27576;53.366;-1.498;2022-08-19T12:19:36;100019.19;;;21.19;48.26
41898;BME280;27576;53.366;-1.498;2022-08-19T12:22:02;100017.13;;;21.03;48.22
41898;BME280;27576;53.366;-1.498;2022-08-19T12:24:31;100007.06;;;20.90;49.34
41898;BME280;27576;53.366;-1.498;2022-08-19T12:26:57;100018.69;;;20.84;49.90
41898;BME280;27576;53.366;-1.498;2022-08-19T12:29:24;100006.72;;;20.75;51.37
41898;BME280;27576;53.366;-1.498;2022-08-19T12:31:55;99990.00;;;20.51;50.20
41898;BME280;27576;53.366;-1.498;2022-08-19T12:34:27;100005.78;;;20.51;50.62
41898;BME280;27576;53.366;-1.498;2022-08-19T12:36:56;100011.44;;;20.39;51.03
41898;BME280;27576;53.366;-1.498;2022-08-19T12:39:21;100037.44;;;20.50;51.32
41898;BME280;27576;53.366;-1.498;2022-08-19T12:41:47;100029.44;;;20.53;52.96
41898;BME280;27576;53.366;-1.498;2022-08-19T12:44:13;100011.03;;;20.51;52.20
41898;BME280;27576;53.366;-1.498;2022-08-19T12:46:38;100012.84;;;20.76;51.96
41898;BME280;27576;53.366;-1.498;2022-08-19T12:49:04;99996.03;;;21.03;51.73
41898;BME280;27576;53.366;-1.498;2022-08-19T12:51:29;100025.81;;;21.76;50.53
41898;BME280;27576;53.366;-1.498;2022-08-19T12:53:56;100017.50;;;22.09;49.28
41898;BME280;27576;53.366;-1.498;2022-08-19T12:56:22;100011.97;;;22.57;49.56
41898;BME280;27576;53.366;-1.498;2022-08-19T12:58:47;100004.78;;;22.61;46.37
41898;BME280;27576;53.366;-1.498;2022-08-19T13:01:14;100007.13;;;22.46;48.12
41898;BME280;27576;53.366;-1.498;2022-08-19T13:03:41;100018.34;;;22.31;45.83